Time;durP1;ratioP1;P1;durP2;ratioP2;P2;SDS_P1;SDS_P2;PMS_P1;PMS_P2;Temp;Humidity;BMP_temperature;BMP_pressure;BME280_temperature;BME280_humidity;BME280_pressure;Samples;Min_cycle;Max_cycle;Signal;HPM_P1;HPM_P2
2022/09/22 00:01:36;;;;;;;10.27;5.63;;;13.90;99.90;;;14.48;69.52;102356.72;4838520;29;20107;-64
2022/09/22 00:04:07;;;;;;;8.85;4.97;;;14.00;99.90;;;14.67;68.65;102358.53;4823722;29;20078;-65
2022/09/22 00:06:40;;;;;;;10.35;5.75;;;14.20;99.90;;;14.61;68.68;102350.53;4824422;29;20516;-64
2022/09/22 00:09:11;;;;;;;11.43;6.38;;;14.20;99.90;;;14.62;68.54;102341.66;4838488;29;20058;-64
2022/09/22 00:11:42;;;;;;;9.82;6.00;;;14.30;99.90;;;14.61;68.63;102339.88;4824291;29;20416;-65
2022/09/22 00:14:19;;;;;;;10.25;6.25;;;14.30;99.90;;;14.66;68.54;102339.00;4824291;29;20613;-64
2022/09/22 00:16:50;;;;;;;11.35;7.07;;;14.30;99.90;;;14.67;68.59;102324.81;4824788;29;20454;-64
2022/09/22 00:19:22;;;;;;;12.90;6.75;;;14.30;99.90;;;14.28;68.40;102252.81;4823231;29;20051;-64
2022/09/22 00:21:51;;;;;;;12.98;6.82;;;14.40;99.90;;;14.86;68.03;102339.06;4824184;29;20134;-65
2022/09/22 00:24:22;;;;;;;9.03;7.00;;;14.50;99.90;;;14.90;68.18;102338.16;4824324;29;20136;-64
2022/09/22 00:26:56;;;;;;;11.20;7.00;;;14.50;99.90;;;14.90;67.86;102339.06;4824184;29;20064;-65
2022/09/22 00:29:26;;;;;;;8.63;6.78;;;14.50;99.90;;;14.91;67.67;102338.16;4824367;29;20141;-65
2022/09/22 00:31:55;;;;;;;10.90;6.68;;;14.50;99.90;;;14.97;67.51;102332.84;4824550;29;20084;-64
2022/09/22 00:34:27;;;;;;;9.77;6.82;;;14.60;99.90;;;15.03;67.43;102332.84;4824212;29;20051;-65
2022/09/22 00:36:57;;;;;;;13.00;7.43;;;14.70;99.90;;;15.03;67.57;102337.28;4824185;29;20050;-65
2022/09/22 00:39:26;;;;;;;11.73;7.28;;;14.60;99.90;;;15.04;67.64;102334.63;4824164;29;20038;-65
2022/09/22 00:41:54;;;;;;;10.57;6.93;;;14.70;99.90;;;15.07;67.58;102336.41;4824161;29;20055;-65
2022/09/22 00:44:37;;;;;;;13.00;7.10;;;14.70;99.90;;;14.94;67.28;102316.84;4823782;29;20056;-64
2022/09/22 00:47:21;;;;;;;12.32;6.80;;;14.70;99.90;;;15.05;67.25;102332.84;4822950;29;20051;-65
2022/09/22 00:49:55;;;;;;;11.57;6.80;;;14.60;99.90;;;14.83;67.25;102288.41;4838608;29;20059;-65
2022/09/22 00:52:30;;;;;;;7.68;6.40;;;14.70;99.90;;;14.99;67.39;102328.41;4823860;29;20060;-64
2022/09/22 00:55:05;;;;;;;10.50;6.30;;;14.60;99.90;;;14.94;67.50;102340.81;4838070;29;20066;-65
2022/09/22 00:57:37;;;;;;;10.98;6.55;;;14.60;99.90;;;14.82;67.77;102316.84;4824049;29;20050;-65
2022/09/22 01:00:09;;;;;;;11.85;7.05;;;14.50;99.90;;;14.75;67.87;102323.03;4823841;29;20050;-64
2022/09/22 01:02:38;;;;;;;7.28;6.55;;;14.40;99.90;;;14.69;68.37;102320.34;4823745;29;20053;-65
2022/09/22 01:05:08;;;;;;;9.18;6.75;;;14.30;99.90;;;14.66;68.73;102315.03;4823977;29;20394;-65
2022/09/22 01:07:37;;;;;;;8.93;6.15;;;14.30;99.90;;;14.58;69.47;102308.78;4823715;29;20140;-65
2022/09/22 01:10:07;;;;;;;6.30;5.27;;;14.20;99.90;;;14.55;69.23;102311.47;4823715;29;20551;-64
2022/09/22 01:12:37;;;;;;;6.10;5.50;;;14.10;99.90;;;14.37;69.57;102312.31;4823661;29;20402;-64
2022/09/22 01:15:22;;;;;;;6.25;5.45;;;14.00;99.90;;;14.25;69.81;102309.56;4826254;29;20064;-65
2022/09/22 01:18:11;;;;;;;7.28;4.95;;;13.90;99.90;;;14.17;70.54;102305.06;4826816;29;20046;-64
2022/09/22 01:21:19;;;;;;;3.05;2.80;;;13.80;99.90;;;14.03;70.57;102310.34;4826905;29;20085;-65
2022/09/22 01:24:41;;;;;;;4.78;3.88;;;13.60;99.90;;;13.81;69.42;102299.59;4827080;29;20401;-65
2022/09/22 01:27:48;;;;;;;6.80;5.05;;;13.50;99.90;;;13.76;70.60;102299.59;4827250;29;20047;-64
2022/09/22 01:30:24;;;;;;;8.85;5.07;;;13.30;99.90;;;13.81;71.23;102295.16;4826675;29;20051;-64
2022/09/22 01:33:16;;;;;;;4.57;4.18;;;13.30;99.90;;;13.71;71.67;102296.00;4826896;29;20073;-64
2022/09/22 01:35:59;;;;;;;5.90;4.22;;;13.30;99.90;;;13.68;71.34;102293.34;4826460;29;20445;-64
2022/09/22 01:38:34;;;;;;;8.38;5.55;;;13.30;99.90;;;13.79;71.06;102288.94;4840850;29;20408;-64
2022/09/22 01:41:08;;;;;;;6.97;5.82;;;13.40;99.90;;;13.82;70.83;102282.78;4826434;29;20058;-64
2022/09/22 01:43:42;;;;;;;5.95;4.57;;;13.40;99.90;;;13.81;70.86;102286.28;4826776;29;20050;-64
2022/09/22 01:46:18;;;;;;;7.88;5.35;;;13.40;99.90;;;13.85;70.80;102275.69;4826620;29;20122;-64
2022/09/22 01:48:50;;;;;;;11.25;6.18;;;13.40;99.90;;;13.94;70.64;102275.72;4826631;29;20072;-64
2022/09/22 01:51:26;;;;;;;12.35;6.68;;;13.50;99.90;;;14.00;70.52;102272.19;4840643;29;20061;-65
2022/09/22 01:54:02;;;;;;;8.35;6.13;;;13.60;99.90;;;14.14;70.16;102268.72;4826221;29;20125;-64
2022/09/22 01:56:33;;;;;;;7.63;5.70;;;13.70;99.90;;;14.16;69.17;102266.94;4826315;29;20061;-65
2022/09/22 01:59:06;;;;;;;7.88;5.15;;;13.80;99.90;;;13.98;69.25;102237.59;4826183;29;20050;-64
2022/09/22 02:01:41;;;;;;;12.82;7.00;;;13.70;99.90;;;14.05;68.86;102257.16;4826149;29;20057;-64
2022/09/22 02:04:16;;;;;;;7.82;6.20;;;13.70;99.90;;;14.15;68.56;102257.16;4840322;29;20541;-64
2022/09/22 02:06:52;;;;;;;10.05;6.28;;;13.80;99.90;;;14.20;68.78;102260.75;4840557;29;20061;-64
2022/09/22 02:09:24;;;;;;;11.45;6.90;;;13.80;99.90;;;14.18;68.14;102253.63;4826247;29;20492;-64
2022/09/22 02:11:52;;;;;;;9.82;6.40;;;13.80;99.90;;;14.23;68.06;102262.50;4840345;29;20065;-64
2022/09/22 02:14:21;;;;;;;11.65;7.45;;;13.80;99.90;;;14.18;67.93;102256.31;4825917;29;20050;-64
2022/09/22 02:16:51;;;;;;;13.55;7.32;;;13.80;99.90;;;14.28;67.81;102255.47;4825833;29;20057;-64
2022/09/22 02:19:23;;;;;;;11.63;7.53;;;13.90;99.90;;;14.22;67.95;102252.78;4826122;29;20493;-65
2022/09/22 02:21:52;;;;;;;9.80;7.15;;;13.90;99.90;;;14.21;67.70;102245.66;4825865;29;20589;-64
2022/09/22 02:24:32;;;;;;;11.48;7.07;;;13.90;99.90;;;14.21;67.87;102254.53;4825667;29;20072;-64
2022/09/22 02:27:05;;;;;;;9.98;6.95;;;13.90;99.90;;;14.25;68.31;102252.75;4825273;29;20485;-64
2022/09/22 02:29:40;;;;;;;11.88;6.90;;;13.90;99.90;;;14.06;67.94;102221.66;4824781;29;20051;-65
2022/09/22 02:32:14;;;;;;;10.25;7.03;;;13.90;99.90;;;14.24;67.88;102246.56;4824682;29;20061;-64
2022/09/22 02:34:44;;;;;;;11.30;7.68;;;13.90;99.90;;;14.31;67.93;102244.84;4825675;29;20065;-64
2022/09/22 02:37:22;;;;;;;16.45;7.13;;;13.90;99.90;;;14.28;67.91;102245.72;4825889;29;20056;-64
2022/09/22 02:40:02;;;;;;;9.85;7.22;;;13.90;99.90;;;14.26;68.37;102246.56;4825534;29;20061;-64
2022/09/22 02:42:39;;;;;;;9.52;6.95;;;13.90;99.90;;;14.25;68.24;102248.34;4826062;29;20367;-64
2022/09/22 02:45:15;;;;;;;14.07;6.35;;;13.90;99.90;;;14.10;68.73;102228.78;4825417;29;20038;-64
2022/09/22 02:47:50;;;;;;;4.80;4.40;;;13.80;99.90;;;13.97;69.42;102245.59;4825473;29;20493;-65
2022/09/22 02:50:22;;;;;;;5.63;5.13;;;13.60;99.90;;;13.87;70.62;102230.47;4825640;29;20042;-65
2022/09/22 02:52:53;;;;;;;7.00;5.35;;;13.50;99.90;;;13.79;70.54;102205.59;4825675;29;20129;-66
2022/09/22 02:55:21;;;;;;;6.38;5.18;;;13.50;99.90;;;13.82;70.31;102222.47;4825844;29;20057;-65
2022/09/22 02:57:49;;;;;;;5.60;5.05;;;13.50;99.90;;;13.68;70.44;102228.63;4825510;29;20058;-66
2022/09/22 03:00:18;;;;;;;6.95;5.05;;;13.40;99.90;;;13.52;70.68;102228.53;4839388;29;20149;-65
2022/09/22 03:02:47;;;;;;;9.30;5.78;;;13.20;99.90;;;13.47;70.95;102232.94;4839564;29;20095;-65
2022/09/22 03:05:16;;;;;;;8.90;6.25;;;13.10;99.90;;;13.45;71.67;102231.16;4825122;29;20057;-64
2022/09/22 03:07:44;;;;;;;7.43;6.10;;;13.10;99.90;;;13.47;72.00;102238.25;4825302;29;20431;-64
2022/09/22 03:10:13;;;;;;;7.72;5.75;;;13.00;99.90;;;13.72;71.81;102235.72;4825052;29;20061;-64
2022/09/22 03:12:42;;;;;;;7.72;5.80;;;13.20;99.90;;;13.48;71.80;102233.81;4825011;29;20133;-64
2022/09/22 03:15:31;;;;;;;7.43;6.32;;;13.10;99.90;;;13.56;71.74;102240.97;4825283;29;20501;-64
2022/09/22 03:18:00;;;;;;;10.38;7.43;;;13.10;99.90;;;13.60;71.72;102223.25;4825277;29;20073;-64
2022/09/22 03:20:29;;;;;;;10.27;6.97;;;13.20;99.90;;;13.52;71.33;102199.31;4839110;29;20050;-64
2022/09/22 03:22:57;;;;;;;12.27;7.40;;;13.30;99.90;;;13.66;71.05;102227.72;4825381;29;20054;-64
2022/09/22 03:25:25;;;;;;;11.05;7.38;;;13.30;99.90;;;13.67;70.96;102216.19;4825059;29;20049;-64
2022/09/22 03:27:54;;;;;;;15.88;7.32;;;13.30;99.90;;;13.64;70.91;102210.88;4825037;29;20070;-65
2022/09/22 03:30:22;;;;;;;11.63;7.93;;;13.30;99.90;;;13.63;70.92;102209.09;4825089;29;20050;-64
2022/09/22 03:32:50;;;;;;;8.73;7.78;;;13.30;99.90;;;13.58;71.11;102215.28;4824669;29;20089;-64
2022/09/22 03:35:20;;;;;;;10.63;8.10;;;13.20;99.90;;;13.66;71.18;102207.34;4838589;29;20058;-64
2022/09/22 03:37:48;;;;;;;14.38;9.27;;;13.30;99.90;;;13.64;70.92;102216.19;4823889;29;20082;-64
2022/09/22 03:40:17;;;;;;;12.20;7.40;;;13.30;99.90;;;13.69;71.25;102210.00;4824925;29;20454;-64
2022/09/22 03:42:45;;;;;;;10.88;7.75;;;13.30;99.90;;;13.67;71.46;102211.75;4824628;29;20058;-64
2022/09/22 03:45:14;;;;;;;14.40;8.27;;;13.30;99.90;;;13.56;71.19;102203.75;4824550;29;20047;-64
2022/09/22 03:47:43;;;;;;;11.93;7.65;;;13.30;99.90;;;13.68;70.95;102210.00;4824889;29;20053;-64
2022/09/22 03:50:12;;;;;;;12.85;8.80;;;13.30;99.90;;;13.58;71.29;102206.41;4824563;29;20098;-64
2022/09/22 03:52:43;;;;;;;9.52;7.82;;;13.30;99.90;;;13.55;71.10;102199.31;4824462;29;20564;-65
2022/09/22 03:55:12;;;;;;;12.48;8.23;;;13.30;99.90;;;13.61;71.41;102211.72;4824566;29;20054;-65
2022/09/22 03:57:42;;;;;;;14.60;9.70;;;13.20;99.90;;;13.54;71.37;102189.56;4824432;29;20047;-64
2022/09/22 04:00:13;;;;;;;14.23;9.82;;;13.20;99.90;;;13.13;71.52;102113.16;4824771;29;20111;-64
2022/09/22 04:02:42;;;;;;;12.18;9.70;;;13.20;99.90;;;13.68;71.42;102207.34;4824369;29;20051;-64
2022/09/22 04:05:11;;;;;;;13.27;10.35;;;13.20;99.90;;;13.68;71.41;102192.28;4824552;29;20103;-66
2022/09/22 04:07:40;;;;;;;11.68;9.52;;;13.30;99.90;;;13.70;71.78;102197.59;4824840;29;20056;-65
2022/09/22 04:10:09;;;;;;;13.15;9.10;;;13.30;99.90;;;13.63;71.55;102209.09;4824840;29;20050;-64
2022/09/22 04:12:37;;;;;;;15.00;9.57;;;13.30;99.90;;;13.63;71.36;102199.34;4824282;29;20111;-65
2022/09/22 04:15:08;;;;;;;12.40;8.65;;;13.20;99.90;;;13.64;71.73;102201.13;4824798;29;20054;-64
2022/09/22 04:17:36;;;;;;;12.88;8.55;;;13.20;99.90;;;13.01;71.81;102084.72;4838447;29;20058;-64
2022/09/22 04:20:07;;;;;;;10.73;8.98;;;13.30;99.90;;;13.65;72.27;102202.88;4824112;29;20482;-64
2022/09/22 04:22:36;;;;;;;12.48;9.25;;;13.30;99.90;;;13.56;72.22;102198.44;4838433;29;20057;-64
2022/09/22 04:25:07;;;;;;;12.45;8.65;;;13.20;99.90;;;13.58;72.02;102194.00;4824038;29;20406;-65
2022/09/22 04:27:36;;;;;;;7.38;6.68;;;13.20;99.90;;;13.54;72.25;102199.31;4824434;29;20505;-65
2022/09/22 04:30:06;;;;;;;7.00;6.30;;;13.10;99.90;;;13.47;72.58;102190.41;4824041;29;20141;-65
2022/09/22 04:32:34;;;;;;;14.85;8.10;;;13.10;99.90;;;13.47;72.68;102192.19;4824531;29;20096;-65
2022/09/22 04:35:03;;;;;;;11.98;9.25;;;13.10;99.90;;;13.39;72.51;102184.16;4824496;29;20050;-65
2022/09/22 04:37:31;;;;;;;9.57;8.35;;;13.00;99.90;;;13.43;72.71;102193.91;4838368;29;20059;-64
2022/09/22 04:39:59;;;;;;;9.70;8.48;;;13.00;99.90;;;13.42;72.67;102192.16;4823995;29;20053;-65
2022/09/22 04:42:29;;;;;;;13.20;8.48;;;13.00;99.90;;;13.40;72.48;102187.69;4823959;29;20078;-65
2022/09/22 04:45:00;;;;;;;15.52;9.85;;;13.00;99.90;;;13.42;72.51;102186.84;4837987;29;20161;-65
2022/09/22 04:47:29;;;;;;;13.48;9.63;;;13.00;99.90;;;13.43;72.57;102196.56;4823991;29;20078;-65
2022/09/22 04:49:58;;;;;;;18.15;9.95;;;13.00;99.90;;;13.44;72.66;102190.41;4825915;29;20118;-65
2022/09/22 04:52:26;;;;;;;11.50;8.77;;;13.00;99.90;;;13.40;72.43;102187.69;4827153;29;20052;-66
2022/09/22 04:54:55;;;;;;;11.60;8.93;;;13.00;99.90;;;13.32;72.79;102179.69;4827377;29;20103;-65
2022/09/22 04:57:23;;;;;;;10.98;9.75;;;13.00;99.90;;;13.41;72.53;102179.72;4827579;29;20042;-65
2022/09/22 04:59:53;;;;;;;16.70;11.60;;;13.00;99.90;;;13.46;72.44;102182.41;4827050;29;20058;-65
2022/09/22 05:02:21;;;;;;;18.30;12.93;;;13.00;99.90;;;13.48;72.74;102192.19;4827793;29;20050;-64
2022/09/22 05:04:49;;;;;;;17.23;12.45;;;13.10;99.90;;;13.50;72.59;102187.78;4841319;29;20061;-66
2022/09/22 05:07:18;;;;;;;15.70;11.88;;;13.10;99.90;;;13.55;72.65;102186.00;4826902;29;20050;-65
2022/09/22 05:09:46;;;;;;;14.90;12.13;;;13.10;99.90;;;13.56;72.04;102198.44;4826711;29;20050;-65
2022/09/22 05:12:14;;;;;;;18.45;12.73;;;13.10;99.90;;;13.50;72.13;102184.22;4826831;29;20051;-66
2022/09/22 05:14:43;;;;;;;15.80;12.63;;;13.10;99.90;;;13.51;72.03;102189.53;4826854;29;20058;-66
2022/09/22 05:17:12;;;;;;;14.60;13.05;;;13.10;99.90;;;13.49;71.95;102180.66;4827054;29;20054;-65
2022/09/22 05:19:41;;;;;;;13.97;11.83;;;13.10;99.90;;;13.55;72.07;102190.44;4826769;29;20069;-66
2022/09/22 05:22:09;;;;;;;20.10;12.60;;;13.10;99.90;;;13.56;72.21;102189.56;4826648;29;20299;-65
2022/09/22 05:24:41;;;;;;;16.13;12.23;;;13.20;99.90;;;13.57;72.31;102189.56;4826571;29;20050;-65
2022/09/22 05:27:09;;;;;;;16.75;12.02;;;13.20;99.90;;;13.59;72.43;102187.81;4826921;29;20439;-66
2022/09/22 05:29:37;;;;;;;17.65;12.20;;;13.20;99.90;;;13.53;72.33;102186.88;4826417;29;20038;-65
2022/09/22 05:32:06;;;;;;;18.25;12.43;;;13.20;99.90;;;13.53;72.22;102195.75;4826939;29;20492;-66
2022/09/22 05:34:36;;;;;;;17.08;11.85;;;13.20;99.90;;;13.56;72.18;102192.22;4840862;29;20050;-66
2022/09/22 05:37:04;;;;;;;15.90;10.43;;;13.20;99.90;;;13.46;71.71;102199.28;4826427;29;20060;-65
2022/09/22 05:39:32;;;;;;;13.75;11.02;;;13.10;99.90;;;13.38;71.84;102195.69;4826403;29;20381;-65
2022/09/22 05:42:01;;;;;;;13.93;11.40;;;13.00;99.90;;;13.40;71.37;102191.25;4826796;29;20057;-65
2022/09/22 05:44:29;;;;;;;13.55;11.45;;;13.00;99.90;;;13.38;72.03;102205.41;4826329;29;20051;-65
2022/09/22 05:46:57;;;;;;;13.45;9.63;;;13.00;99.90;;;13.31;72.60;102200.94;4840277;29;20099;-66
2022/09/22 05:49:26;;;;;;;14.95;9.65;;;13.00;99.90;;;13.31;72.74;102209.81;4826524;29;20129;-66
2022/09/22 05:51:56;;;;;;;14.65;9.88;;;12.90;99.90;;;13.31;72.13;102209.81;4840426;29;20573;-64
2022/09/22 05:54:24;;;;;;;11.40;8.50;;;12.90;99.90;;;13.23;72.32;102200.91;4826521;29;20417;-64
2022/09/22 05:56:53;;;;;;;7.95;7.13;;;12.80;99.90;;;13.30;72.67;102200.06;4826416;29;20126;-64
2022/09/22 05:59:21;;;;;;;12.23;8.98;;;12.90;99.90;;;13.33;73.42;102199.19;4826684;29;20081;-64
2022/09/22 06:01:49;;;;;;;17.25;8.98;;;12.90;99.90;;;13.43;73.49;102193.06;4825212;29;20046;-64
2022/09/22 06:04:18;;;;;;;9.80;8.80;;;13.10;99.90;;;13.57;73.52;102194.88;4825911;29;20084;-64
2022/09/22 06:06:46;;;;;;;11.13;8.77;;;13.20;99.90;;;13.64;73.59;102195.81;4840016;29;20050;-64
2022/09/22 06:09:16;;;;;;;8.88;6.82;;;13.30;99.90;;;13.75;72.50;102194.06;4825839;29;20494;-64
2022/09/22 06:11:44;;;;;;;7.93;6.18;;;13.40;99.90;;;13.81;72.06;102199.41;4825725;29;20054;-65
2022/09/22 06:14:12;;;;;;;9.00;6.65;;;13.50;99.90;;;13.90;72.07;102193.25;4826112;29;20042;-66
2022/09/22 06:16:42;;;;;;;9.27;5.55;;;13.50;99.90;;;13.81;71.88;102166.59;4826058;29;20066;-65
2022/09/22 06:19:10;;;;;;;7.88;6.32;;;13.60;99.90;;;14.09;71.66;102192.41;4825786;29;20111;-64
2022/09/22 06:21:38;;;;;;;7.20;6.53;;;13.70;99.90;;;14.28;70.96;102196.94;4825664;29;20065;-65
2022/09/22 06:24:07;;;;;;;10.10;7.30;;;13.80;99.90;;;14.61;71.25;102186.31;4825663;29;20050;-64
2022/09/22 06:26:36;;;;;;;14.20;9.48;;;14.10;99.90;;;14.82;70.70;102196.97;4825806;29;20050;-64
2022/09/22 06:29:05;;;;;;;10.57;7.82;;;14.40;99.90;;;14.97;70.80;102178.28;4826100;29;20046;-64
2022/09/22 06:31:33;;;;;;;10.35;8.90;;;14.60;99.90;;;15.45;70.52;102193.31;4825931;29;20066;-61
2022/09/22 06:34:01;;;;;;;18.88;13.57;;;15.00;99.90;;;15.93;68.65;102202.91;4825568;29;20054;-61
2022/09/22 06:36:34;;;;;;;15.90;14.23;;;15.40;99.90;;;16.27;67.42;102194.69;4826007;29;20050;-62
2022/09/22 06:39:04;;;;;;;19.92;14.27;;;15.70;99.90;;;16.43;65.83;102187.47;4825989;29;20062;-61
2022/09/22 06:41:33;;;;;;;23.02;15.20;;;16.00;99.90;;;16.63;65.23;102201.56;4825356;29;20069;-61
2022/09/22 06:44:06;;;;;;;19.38;14.77;;;16.20;99.90;;;16.46;65.01;102202.56;4839458;29;20137;-61
2022/09/22 06:46:36;;;;;;;16.52;12.82;;;16.10;99.90;;;16.31;66.29;102186.66;4825619;29;20141;-62
2022/09/22 06:49:04;;;;;;;15.90;14.10;;;15.90;99.90;;;16.62;66.41;102194.47;4825558;29;20493;-62
2022/09/22 06:51:35;;;;;;;19.67;15.52;;;16.00;99.90;;;17.09;64.97;102197.59;4825236;29;20049;-62
2022/09/22 06:54:06;;;;;;;23.10;15.35;;;16.50;99.90;;;17.28;63.71;102192.97;4825744;29;20046;-64
2022/09/22 06:56:38;;;;;;;23.88;16.45;;;16.80;99.90;;;16.81;63.03;102180.06;4825560;29;20050;-67
2022/09/22 06:59:11;;;;;;;21.08;15.88;;;16.50;99.90;;;16.27;64.17;102106.56;4825228;29;20051;-67
2022/09/22 07:01:42;;;;;;;24.90;17.88;;;16.20;99.90;;;16.00;65.10;102191.31;4825428;29;20107;-68
2022/09/22 07:04:11;;;;;;;23.35;17.38;;;15.70;99.90;;;16.10;66.32;102183.22;4825235;29;20053;-63
2022/09/22 07:06:41;;;;;;;28.70;18.33;;;15.50;99.90;;;15.96;66.66;102189.53;4825288;29;20046;-64
2022/09/22 07:09:11;;;;;;;21.50;17.92;;;15.40;99.90;;;15.88;67.29;102194.03;4839376;29;20450;-64
2022/09/22 07:11:39;;;;;;;26.80;19.90;;;15.30;99.90;;;15.82;67.05;102186.03;4838776;29;20462;-63
2022/09/22 07:14:11;;;;;;;28.55;20.70;;;15.30;99.90;;;15.32;68.32;102184.44;4839213;29;20083;-63
2022/09/22 07:16:40;;;;;;;26.65;20.27;;;14.90;99.90;;;15.56;68.60;102174.63;4825106;29;20407;-65
2022/09/22 07:19:08;;;;;;;26.98;20.45;;;15.00;99.90;;;15.74;68.62;102175.41;4839007;29;20058;-67
2022/09/22 07:21:37;;;;;;;25.52;21.50;;;15.20;99.90;;;15.90;67.73;102173.56;4824757;29;20069;-69
2022/09/22 07:24:07;;;;;;;29.02;21.25;;;15.40;99.90;;;16.31;67.11;102174.19;4825047;29;20050;-65
2022/09/22 07:26:39;;;;;;;28.50;21.38;;;15.80;99.90;;;16.48;65.73;102180.34;4824639;29;20050;-67
2022/09/22 07:29:12;;;;;;;23.83;20.52;;;16.00;99.90;;;16.68;66.53;102166.81;4824732;29;20445;-65
2022/09/22 07:31:41;;;;;;;26.88;20.98;;;16.20;99.90;;;16.96;65.49;102185.25;4824805;29;20059;-68
2022/09/22 07:34:11;;;;;;;27.80;21.83;;;16.50;99.90;;;16.87;64.12;102182.69;4824664;29;20059;-68
2022/09/22 07:36:40;;;;;;;28.05;21.95;;;16.50;99.90;;;16.30;66.36;102185.75;4824569;29;20042;-68
2022/09/22 07:39:11;;;;;;;29.92;21.75;;;16.00;99.90;;;16.25;66.49;102183.13;4824823;29;20055;-69
2022/09/22 07:41:42;;;;;;;28.42;22.35;;;15.80;99.90;;;16.45;66.55;102183.00;4838378;29;20149;-68
2022/09/22 07:47:01;;;;;;;27.48;21.02;;;16.00;99.90;;;16.71;66.48;102189.03;4824657;29;20110;-69
2022/09/22 07:49:30;;;;;;;31.42;20.85;;;16.10;99.90;;;16.63;66.92;102176.63;4824770;29;20076;-69
2022/09/22 07:51:58;;;;;;;26.98;20.90;;;16.20;99.90;;;16.76;66.75;102176.50;4824671;29;20081;-69
2022/09/22 07:54:27;;;;;;;27.75;20.83;;;16.30;99.90;;;16.98;65.28;102177.22;4824301;29;20046;-70
2022/09/22 07:56:58;;;;;;;27.35;20.52;;;16.50;99.90;;;17.17;66.74;102177.94;4824463;29;20046;-82
2022/09/22 07:59:28;;;;;;;28.90;19.95;;;16.60;99.90;;;17.34;65.39;102166.16;4824455;29;20075;-76
2022/09/22 08:01:56;;;;;;;27.92;20.30;;;16.80;99.90;;;17.67;64.72;102167.56;4824311;29;20042;-78
2022/09/22 08:04:25;;;;;;;29.20;20.52;;;17.20;99.90;;;18.00;63.63;102176.00;4824864;29;20042;-78
2022/09/22 08:06:55;;;;;;;28.85;20.65;;;17.50;99.90;;;18.13;63.03;102175.84;4824135;29;20057;-74
2022/09/22 08:09:24;;;;;;;28.27;19.10;;;17.70;99.90;;;17.55;63.20;102084.75;4838303;29;20073;-77
2022/09/22 08:11:53;;;;;;;28.05;19.50;;;17.70;99.90;;;18.00;62.69;102165.28;4824737;29;20046;-71
2022/09/22 08:14:22;;;;;;;29.10;18.75;;;17.60;99.90;;;18.27;63.07;102173.84;4838248;29;20054;-75
2022/09/22 08:16:53;;;;;;;38.53;18.38;;;17.70;99.90;;;18.13;60.96;102158.00;4824004;29;20503;-82
2022/09/22 08:19:23;;;;;;;28.05;19.02;;;17.80;99.90;;;18.64;60.51;102175.09;4824310;29;20054;-82
2022/09/22 08:21:53;;;;;;;24.50;18.30;;;18.20;99.90;;;18.82;59.20;102147.94;4823016;29;20054;-82
2022/09/22 08:24:22;;;;;;;24.35;17.80;;;18.60;99.90;;;19.03;59.41;102135.94;4825743;29;20074;-82
2022/09/22 08:26:54;;;;;;;27.92;17.80;;;18.80;99.90;;;19.02;59.10;102158.31;4827643;29;20565;-83
2022/09/22 08:29:24;;;;;;;26.20;17.70;;;18.70;99.90;;;19.16;59.75;102161.63;4827707;29;20043;-83
2022/09/22 08:31:54;;;;;;;29.65;19.10;;;18.80;99.90;;;19.49;59.61;102164.53;4841685;29;20088;-84
2022/09/22 08:34:22;;;;;;;21.10;17.73;;;19.10;99.90;;;19.76;58.54;102165.78;4841860;29;20394;-77
2022/09/22 08:36:51;;;;;;;22.48;16.30;;;19.40;99.90;;;19.49;57.76;102158.31;4827910;29;20466;-81
2022/09/22 08:39:20;;;;;;;26.45;18.25;;;19.20;99.90;;;19.65;57.92;102163.31;4827265;29;20083;-81
2022/09/22 08:42:08;;;;;;;23.27;15.77;;;19.20;99.90;;;19.57;56.83;102159.91;4827157;29;20505;-83
2022/09/22 08:44:42;;;;;;;19.25;15.95;;;19.30;99.90;;;19.40;55.69;102166.53;4827854;29;20066;-83
2022/09/22 08:51:50;;;;;;;21.42;15.75;;;19.00;99.90;;;19.66;56.74;102157.06;4827215;29;20570;-81
2022/09/22 08:53:15;;;;;;;21.10;14.77;;;19.30;99.90;;;19.75;55.46;102156.84;4827227;29;20050;-80
2022/09/22 08:55:49;;;;;;;20.60;15.13;;;19.30;99.90;;;19.69;55.41;102156.06;4827701;29;20051;-83
2022/09/22 08:58:43;;;;;;;23.35;14.18;;;19.30;99.90;;;20.25;55.42;102158.41;4827174;29;20050;-76
2022/09/22 09:01:30;;;;;;;17.48;12.13;;;19.70;99.90;;;20.37;51.37;102154.53;4826106;29;20054;-80
2022/09/22 09:04:26;;;;;;;19.52;13.25;;;20.00;99.90;;;20.30;51.31;102075.88;4827235;29;20103;-76
2022/09/22 09:07:06;;;;;;;17.90;12.15;;;20.30;99.90;;;21.35;50.57;102168.13;4827130;29;20545;-74
2022/09/22 09:09:51;;;;;;;20.40;12.23;;;20.90;99.90;;;21.50;49.69;102171.25;4827521;29;20065;-69
2022/09/22 09:12:44;;;;;;;16.20;11.35;;;21.20;99.90;;;21.33;48.62;102172.69;4827093;29;20441;-69
2022/09/22 09:15:29;;;;;;;18.48;11.55;;;21.00;99.90;;;21.29;47.71;102181.75;4826700;29;20053;-69
2022/09/22 09:18:05;;;;;;;13.95;9.88;;;20.90;99.90;;;21.48;46.47;102181.22;4841185;29;20054;-69
2022/09/22 09:20:39;;;;;;;17.05;9.10;;;21.20;99.90;;;21.51;46.83;102175.72;4826940;29;20050;-69
2022/09/22 09:23:17;;;;;;;14.35;10.25;;;21.10;99.90;;;21.06;45.98;102155.47;4841260;29;20138;-69
2022/09/22 09:25:51;;;;;;;20.17;11.80;;;20.80;99.90;;;21.80;46.37;102182.97;4826935;29;20107;-71
2022/09/22 09:28:22;;;;;;;12.52;9.70;;;21.30;99.90;;;21.87;44.98;102181.00;4826825;29;20046;-70
2022/09/22 09:31:06;;;;;;;19.00;10.63;;;21.50;99.90;;;21.78;46.45;102182.09;4826750;29;20154;-70
2022/09/22 09:33:44;;;;;;;16.83;10.75;;;21.30;99.90;;;22.24;46.27;102176.25;4826512;29;20099;-70
2022/09/22 09:36:21;;;;;;;12.90;10.02;;;21.70;99.90;;;22.57;43.91;102180.56;4825588;29;20412;-70
2022/09/22 09:38:55;;;;;;;14.50;10.80;;;22.20;99.90;;;22.52;45.01;102178.91;4840688;29;20645;-70
2022/09/22 09:41:30;;;;;;;14.48;10.40;;;22.20;99.90;;;21.68;44.52;102177.06;4826282;29;20485;-70
2022/09/22 09:43:59;;;;;;;18.67;10.10;;;21.50;99.90;;;22.12;45.37;102179.31;4826731;29;20557;-70
2022/09/22 09:46:40;;;;;;;12.05;8.30;;;21.60;99.90;;;22.08;43.66;102177.66;4826545;29;20050;-70
2022/09/22 09:49:14;;;;;;;12.23;9.13;;;21.70;99.90;;;22.64;44.48;102178.56;4826143;29;20512;-77
2022/09/22 09:51:47;;;;;;;13.80;9.70;;;22.10;99.90;;;22.11;45.66;102181.13;4826280;29;20047;-83
2022/09/22 09:54:18;;;;;;;14.75;10.52;;;21.90;99.90;;;21.57;45.27;102177.34;4825265;29;20054;-83
2022/09/22 09:57:08;;;;;;;12.73;9.65;;;21.20;99.90;;;21.51;46.36;102169.44;4826570;29;20060;-85
2022/09/22 10:02:28;;;;;;;15.40;9.07;;;21.50;99.90;;;22.05;45.15;102159.75;4826302;29;20409;-76
2022/09/22 10:05:00;;;;;;;11.63;7.38;;;21.60;99.90;;;21.82;43.80;102164.97;4826027;29;20525;-85
2022/09/22 10:07:39;;;;;;;13.25;7.80;;;21.50;99.90;;;21.30;43.03;102051.59;4826065;29;20630;-84
2022/09/22 10:10:31;;;;;;;9.60;6.70;;;21.50;99.90;;;21.56;44.40;102152.22;4840355;29;20145;-84
2022/09/22 10:13:30;;;;;;;8.48;5.50;;;21.20;99.90;;;21.65;42.23;102155.56;4826338;29;20052;-84
2022/09/22 10:16:23;;;;;;;11.23;6.50;;;21.30;99.90;;;20.89;44.07;102151.41;4825933;29;20145;-84
2022/09/22 10:19:04;;;;;;;10.77;5.90;;;20.60;99.90;;;20.85;44.92;102139.00;4823127;29;20070;-84
2022/09/22 10:21:35;;;;;;;;;;;20.50;99.90;;;20.73;43.66;102139.31;4826272;29;20121;-84
2022/09/22 10:24:28;;;;;;;11.20;7.82;;;20.40;99.90;;;20.39;45.36;102140.16;4839952;29;20031;-73
2022/09/22 10:26:56;;;;;;;10.65;8.05;;;20.00;99.90;;;20.33;45.86;102139.41;4825756;29;20129;-81
2022/09/22 10:29:26;;;;;;;11.88;8.38;;;19.90;99.90;;;20.70;45.66;102137.56;4825642;29;20451;-71
2022/09/22 10:32:06;;;;;;;17.88;7.85;;;20.10;99.90;;;21.44;46.01;102136.44;4826123;29;20414;-73
2022/09/22 10:34:37;;;;;;;10.70;8.33;;;20.90;99.90;;;21.52;44.27;102144.28;4840217;29;20069;-75
2022/09/22 10:37:09;;;;;;;11.40;7.70;;;21.10;99.90;;;22.00;43.26;102137.47;4825883;29;20046;-71